This is the latest recevied weather packets stored in our database for station/object W2SRH. If no packets are shown the sender has not sent any weather packets the latest 10 day(s).
| Time | Temp. | Humidity | Pressure | Rain* | Wind** | Luminosity | Snow |
|---|---|---|---|---|---|---|---|
| 1787770502 | 28.89° C | 44% | 1009.6 hPa | 0 mm | 0 m/s | - | - |
| 1787770144 | 28.89° C | 42% | 1009.5 hPa | 0 mm | 0.89 m/s, 271° | - | - |
| 1787769544 | 28.89° C | 43% | 1009.5 hPa | 0 mm | 0.89 m/s, 292° | - | - |
| 1787768945 | 28.89° C | 44% | 1009.6 hPa | 0 mm | 0 m/s | - | - |
| 1787768585 | 28.33° C | 47% | 1010 hPa | 0 mm | 0 m/s | - | - |
| 1787768344 | 28.33° C | 47% | 1009.7 hPa | 0 mm | 0.45 m/s, 61° | - | - |
| 1787767745 | 28.89° C | 46% | 1009.9 hPa | 0 mm | 0.45 m/s, 181° | - | - |
| 1787767145 | 28.33° C | 47% | 1010 hPa | 0 mm | 0 m/s | - | - |
| 1787766672 | 27.78° C | 46% | 1010.2 hPa | 0 mm | 1.34 m/s, 282° | - | - |
| 1787766548 | 27.78° C | 47% | 1010.1 hPa | 0 mm | 0.89 m/s, 246° | - | - |
| 1787765945 | 26.67° C | 48% | 1010.1 hPa | 0 mm | 0.45 m/s, 295° | - | - |
| 1787765345 | 27.78° C | 46% | 1010.2 hPa | 0 mm | 1.34 m/s, 282° | - | - |
| 1787764747 | 27.22° C | 48% | 1010.7 hPa | 0 mm | 0.45 m/s, 186° | - | - |
| 1787764746 | 27.22° C | 47% | 1010.4 hPa | 0 mm | 0.89 m/s, 293° | - | - |
| 1787764146 | 27.22° C | 47% | 1010.7 hPa | 0 mm | 1.34 m/s, 293° | - | - |
| 1787763545 | 27.22° C | 48% | 1010.7 hPa | 0 mm | 0.45 m/s, 186° | - | - |
| 1787762945 | 26.67° C | 49% | 1010.6 hPa | 0 mm | 0.45 m/s, 354° | - | - |
| 1787762829 | 26.11° C | 50% | 1010.8 hPa | 0 mm | 0 m/s | - | - |
| 1787762820 | 25.56° C | 51% | 1011 hPa | 0 mm | 0.45 m/s, 14° | - | - |
| 1787762343 | 26.11° C | 50% | 1010.8 hPa | 0 mm | 0.45 m/s, 308° | - | - |
| 1787761744 | 26.11° C | 50% | 1010.8 hPa | 0 mm | 0 m/s | - | - |
| 1787761144 | 25.56° C | 51% | 1011 hPa | 0 mm | 0.45 m/s, 14° | - | - |
| 1787760545 | 25.56° C | 52% | 1011.1 hPa | 0 mm | 0.89 m/s, 35° | - | - |
| 1787759944 | 25.56° C | 51% | 1011 hPa | 0 mm | 0.89 m/s, 303° | - | - |
| 1787759346 | 25° C | 52% | 1011 hPa | 0 mm | 0.89 m/s, 289° | - | - |
* Rain latest hour (hover to see other rain measurements)
** Current wind speed in m/s (hover to see current wind gust speed)